Time;durP1;ratioP1;P1;durP2;ratioP2;P2;SDS_P1;SDS_P2;PMS_P1;PMS_P2;Temp;Humidity;BMP_temperature;BMP_pressure;BME280_temperature;BME280_humidity;BME280_pressure;Samples;Min_cycle;Max_cycle;Signal;HPM_P1;HPM_P2
2023/08/20 00:01:37;;;;;;;12.63;7.10;;;;;;;;;;5073150;28;20526;-66
2023/08/20 00:04:04;;;;;;;10.47;6.60;;;;;;;;;;5073071;28;20425;-67
2023/08/20 00:06:32;;;;;;;15.93;7.77;;;;;;;;;;5072905;28;20527;-66
2023/08/20 00:08:59;;;;;;;12.03;7.17;;;;;;;;;;5072665;28;20563;-66
2023/08/20 00:11:27;;;;;;;10.10;6.43;;;;;;;;;;5072943;28;20444;-66
2023/08/20 00:13:54;;;;;;;14.70;9.03;;;;;;;;;;5072933;28;20523;-66
2023/08/20 00:16:21;;;;;;;10.23;7.93;;;;;;;;;;5072702;28;20456;-66
2023/08/20 00:18:50;;;;;;;13.17;7.77;;;;;;;;;;5072756;28;20436;-66
2023/08/20 00:21:18;;;;;;;14.03;7.50;;;;;;;;;;5072398;28;20483;-66
2023/08/20 00:23:45;;;;;;;13.83;6.67;;;;;;;;;;5072625;28;20469;-66
2023/08/20 00:26:13;;;;;;;11.73;7.57;;;;;;;;;;5072346;28;20447;-66
2023/08/20 00:28:40;;;;;;;13.03;8.00;;;;;;;;;;5073323;28;20472;-67
2023/08/20 00:31:07;;;;;;;13.23;7.20;;;;;;;;;;5072482;28;20966;-67
2023/08/20 00:33:34;;;;;;;9.73;6.87;;;;;;;;;;5072992;28;20524;-66
2023/08/20 00:36:03;;;;;;;13.10;8.83;;;;;;;;;;5073262;28;20829;-66
2023/08/20 00:38:30;;;;;;;11.90;7.47;;;;;;;;;;5072392;28;20447;-66
2023/08/20 00:40:57;;;;;;;10.70;8.00;;;;;;;;;;5072353;28;20960;-66
2023/08/20 00:43:25;;;;;;;14.73;8.10;;;;;;;;;;5072518;28;20519;-66
2023/08/20 00:45:52;;;;;;;15.80;9.00;;;;;;;;;;5072964;28;20448;-66
2023/08/20 00:48:20;;;;;;;14.50;8.07;;;;;;;;;;5072165;28;20961;-66
2023/08/20 00:50:47;;;;;;;9.50;8.60;;;;;;;;;;5072667;28;20450;-66
2023/08/20 00:53:16;;;;;;;12.83;9.20;;;;;;;;;;5072233;28;20468;-66
2023/08/20 00:55:44;;;;;;;18.33;9.40;;;;;;;;;;5073109;28;20436;-66
2023/08/20 00:58:12;;;;;;;21.40;10.90;;;;;;;;;;5072285;28;20440;-66
2023/08/20 01:00:39;;;;;;;11.70;8.60;;;;;;;;;;5072163;28;20432;-66
2023/08/20 01:03:06;;;;;;;13.37;9.23;;;;;;;;;;5072403;28;20527;-66
2023/08/20 01:05:34;;;;;;;13.87;10.80;;;;;;;;;;5072007;28;20447;-66
2023/08/20 01:08:11;;;;;;;11.33;9.70;;;;;;;;;;5072322;28;20476;-66
2023/08/20 01:10:43;;;;;;;17.20;11.67;;;;;;;;;;5076186;28;20431;-67
2023/08/20 01:13:11;;;;;;;19.17;10.97;;;;;;;;;;5075961;28;20425;-67
2023/08/20 01:15:38;;;;;;;15.73;11.40;;;;;;;;;;5075788;28;20444;-67
2023/08/20 01:18:05;;;;;;;14.87;10.73;;;;;;;;;;5075734;28;20908;-67
2023/08/20 01:20:34;;;;;;;15.73;11.00;;;;;;;;;;5075926;28;20436;-67
2023/08/20 01:23:12;;;;;;;14.70;10.23;;;;;;;;;;5076147;28;20440;-67
2023/08/20 01:25:46;;;;;;;18.67;11.50;;;;;;;;;;5076225;28;20430;-67
2023/08/20 01:28:23;;;;;;;14.23;11.30;;;;;;;;;;5075562;28;20509;-67
2023/08/20 01:30:50;;;;;;;13.10;10.47;;;;;;;;;;5075510;28;20927;-67
2023/08/20 01:33:18;;;;;;;19.90;10.30;;;;;;;;;;5075762;28;20436;-67
2023/08/20 01:35:45;;;;;;;15.60;10.47;;;;;;;;;;5075598;28;20531;-67
2023/08/20 01:38:12;;;;;;;19.27;9.73;;;;;;;;;;5075420;28;20547;-67
2023/08/20 01:40:39;;;;;;;19.80;10.13;;;;;;;;;;5075261;28;20454;-67
2023/08/20 01:43:07;;;;;;;13.13;10.23;;;;;;;;;;5075611;28;20440;-66
2023/08/20 01:45:35;;;;;;;17.20;10.83;;;;;;;;;;5075558;28;20484;-67
2023/08/20 01:48:03;;;;;;;13.00;10.43;;;;;;;;;;5075532;28;20543;-67
2023/08/20 01:50:30;;;;;;;17.57;9.03;;;;;;;;;;5075542;28;20517;-67
2023/08/20 01:52:57;;;;;;;15.23;10.27;;;;;;;;;;5075235;28;20447;-67
2023/08/20 01:55:25;;;;;;;14.23;10.33;;;;;;;;;;5074934;28;20435;-67
2023/08/20 01:57:52;;;;;;;11.17;9.20;;;;;;;;;;5074899;28;20442;-67
2023/08/20 02:00:19;;;;;;;12.40;8.70;;;;;;;;;;5075155;28;20440;-67
2023/08/20 02:02:47;;;;;;;11.40;9.73;;;;;;;;;;5075213;28;20447;-67
2023/08/20 02:05:15;;;;;;;17.53;9.87;;;;;;;;;;5074934;28;20922;-67
2023/08/20 02:07:42;;;;;;;16.13;9.37;;;;;;;;;;5075803;28;20778;-67
2023/08/20 02:10:10;;;;;;;14.40;9.67;;;;;;;;;;5074867;28;20484;-67
2023/08/20 02:12:37;;;;;;;14.73;10.07;;;;;;;;;;5075047;28;20438;-67
2023/08/20 02:15:04;;;;;;;19.87;10.00;;;;;;;;;;5074659;28;20501;-67
2023/08/20 02:17:32;;;;;;;14.40;10.07;;;;;;;;;;5074846;28;20914;-66
2023/08/20 02:20:00;;;;;;;11.73;9.63;;;;;;;;;;5073866;28;20873;-67
2023/08/20 02:22:29;;;;;;;15.20;10.20;;;;;;;;;;5074494;28;20515;-67
2023/08/20 02:24:56;;;;;;;18.30;9.70;;;;;;;;;;5075183;28;20437;-67
2023/08/20 02:27:23;;;;;;;12.37;8.77;;;;;;;;;;5074933;28;20519;-67
2023/08/20 02:29:51;;;;;;;16.47;10.10;;;;;;;;;;5074297;28;20479;-67
2023/08/20 02:32:18;;;;;;;12.40;9.33;;;;;;;;;;5074621;28;20460;-67
2023/08/20 02:34:46;;;;;;;11.07;8.77;;;;;;;;;;5074061;28;20906;-67
2023/08/20 02:37:15;;;;;;;17.00;9.20;;;;;;;;;;5074625;28;20456;-67
2023/08/20 02:39:42;;;;;;;19.57;11.20;;;;;;;;;;5074132;28;20449;-67
2023/08/20 02:42:09;;;;;;;12.30;9.50;;;;;;;;;;5074272;28;20525;-67
2023/08/20 02:44:37;;;;;;;16.70;9.93;;;;;;;;;;5074014;28;20436;-67
2023/08/20 02:47:04;;;;;;;18.67;9.90;;;;;;;;;;5074385;28;20448;-67
2023/08/20 02:49:31;;;;;;;12.33;10.57;;;;;;;;;;5073826;28;21082;-67
2023/08/20 02:51:58;;;;;;;15.90;9.93;;;;;;;;;;5074187;28;20519;-67
2023/08/20 02:54:28;;;;;;;18.37;11.17;;;;;;;;;;5074111;28;20477;-67
2023/08/20 02:56:56;;;;;;;17.80;10.13;;;;;;;;;;5073820;28;20426;-67
2023/08/20 02:59:23;;;;;;;15.30;10.23;;;;;;;;;;5074318;28;20813;-67
2023/08/20 03:01:50;;;;;;;18.23;10.40;;;;;;;;;;5074098;28;20447;-67
2023/08/20 03:04:17;;;;;;;16.50;10.90;;;;;;;;;;5074039;28;20531;-67
2023/08/20 03:06:44;;;;;;;14.23;10.17;;;;;;;;;;5073902;28;20932;-67
2023/08/20 03:09:12;;;;;;;16.67;11.03;;;;;;;;;;5074210;28;20484;-67
2023/08/20 03:11:40;;;;;;;14.73;10.50;;;;;;;;;;5073888;28;20469;-67
2023/08/20 03:14:07;;;;;;;17.30;10.50;;;;;;;;;;5073910;28;20479;-67
2023/08/20 03:16:35;;;;;;;18.67;9.83;;;;;;;;;;5074236;28;20804;-67
2023/08/20 03:19:02;;;;;;;12.40;10.00;;;;;;;;;;5074405;28;20543;-67
2023/08/20 03:21:29;;;;;;;14.00;8.93;;;;;;;;;;5073682;28;20485;-67
2023/08/20 03:23:57;;;;;;;11.40;9.63;;;;;;;;;;5074032;28;20440;-67
2023/08/20 03:26:24;;;;;;;13.17;9.03;;;;;;;;;;5073562;28;20442;-67
2023/08/20 03:28:52;;;;;;;13.57;9.47;;;;;;;;;;5073573;28;20476;-67
2023/08/20 03:31:20;;;;;;;10.50;8.93;;;;;;;;;;5073574;28;20436;-67
2023/08/20 03:33:47;;;;;;;12.47;8.07;;;;;;;;;;5073544;28;20454;-67
2023/08/20 03:36:14;;;;;;;13.03;8.63;;;;;;;;;;5073109;28;20448;-67
2023/08/20 03:38:41;;;;;;;13.37;8.57;;;;;;;;;;5073247;28;20930;-66
2023/08/20 03:41:08;;;;;;;10.23;8.57;;;;;;;;;;5073355;28;20459;-67
2023/08/20 03:43:36;;;;;;;12.93;9.23;;;;;;;;;;5073543;28;20465;-68
2023/08/20 03:46:04;;;;;;;13.33;10.83;;;;;;;;;;5072838;28;20437;-67
2023/08/20 03:48:31;;;;;;;15.43;9.50;;;;;;;;;;5073378;28;20442;-67
2023/08/20 03:50:59;;;;;;;14.13;9.63;;;;;;;;;;5073115;28;20442;-67
2023/08/20 03:53:26;;;;;;;17.50;9.60;;;;;;;;;;5073729;28;20574;-67
2023/08/20 03:55:53;;;;;;;14.17;10.20;;;;;;;;;;5052054;28;20447;-67
2023/08/20 03:58:20;;;;;;;15.00;10.13;;;;;;;;;;5052386;28;20442;-67
2023/08/20 04:00:47;;;;;;;14.30;10.23;;;;;;;;;;5052206;28;20477;-67
2023/08/20 04:03:19;;;;;;;18.60;11.40;;;;;;;;;;5052091;28;20926;-67
2023/08/20 04:05:46;;;;;;;18.93;11.80;;;;;;;;;;5052365;28;20930;-67
2023/08/20 04:08:13;;;;;;;21.20;12.77;;;;;;;;;;5051608;28;20520;-67
2023/08/20 04:10:45;;;;;;;15.17;11.10;;;;;;;;;;5052353;28;20587;-67
2023/08/20 04:13:13;;;;;;;17.03;12.77;;;;;;;;;;5052026;28;20441;-67
2023/08/20 04:15:41;;;;;;;14.90;12.27;;;;;;;;;;5051828;28;20519;-67
2023/08/20 04:18:08;;;;;;;23.27;13.67;;;;;;;;;;5052684;28;20445;-67
2023/08/20 04:20:36;;;;;;;14.63;13.10;;;;;;;;;;5052261;28;20444;-67
2023/08/20 04:23:04;;;;;;;20.27;14.30;;;;;;;;;;5063429;28;20462;-66
2023/08/20 04:25:31;;;;;;;19.80;14.20;;;;;;;;;;5092775;28;20454;-67
2023/08/20 04:27:58;;;;;;;20.30;14.33;;;;;;;;;;5092697;28;20441;-66
2023/08/20 04:30:25;;;;;;;16.97;14.40;;;;;;;;;;5092315;28;20477;-66
2023/08/20 04:32:52;;;;;;;20.90;13.70;;;;;;;;;;5092583;28;20431;-66
2023/08/20 04:35:20;;;;;;;16.37;13.20;;;;;;;;;;5092899;28;20545;-66
2023/08/20 04:37:48;;;;;;;20.10;14.13;;;;;;;;;;5092699;28;20435;-67
2023/08/20 04:40:15;;;;;;;21.70;13.37;;;;;;;;;;5092444;28;20533;-67
2023/08/20 04:42:43;;;;;;;22.30;13.50;;;;;;;;;;5092706;28;20534;-67
2023/08/20 04:45:10;;;;;;;18.87;13.20;;;;;;;;;;5096162;28;20442;-67
2023/08/20 04:47:38;;;;;;;24.20;12.93;;;;;;;;;;5096899;28;20497;-67
2023/08/20 04:50:06;;;;;;;19.23;14.87;;;;;;;;;;5097179;28;20484;-67
2023/08/20 04:52:34;;;;;;;21.07;15.93;;;;;;;;;;5096686;28;20439;-67
2023/08/20 04:55:02;;;;;;;24.23;16.70;;;;;;;;;;5096776;28;20467;-67
2023/08/20 04:57:29;;;;;;;22.00;16.03;;;;;;;;;;5096552;28;20443;-67
2023/08/20 04:59:57;;;;;;;23.57;14.80;;;;;;;;;;5097093;28;20479;-67
2023/08/20 05:02:24;;;;;;;23.77;16.77;;;;;;;;;;5096218;28;20523;-67
2023/08/20 05:04:51;;;;;;;27.13;16.30;;;;;;;;;;5096961;28;20501;-67
2023/08/20 05:07:18;;;;;;;22.23;16.13;;;;;;;;;;5096207;28;20431;-67
2023/08/20 05:09:45;;;;;;;24.80;17.10;;;;;;;;;;5096365;28;20471;-66
2023/08/20 05:12:14;;;;;;;19.07;15.30;;;;;;;;;;5096325;28;20441;-67
2023/08/20 05:14:41;;;;;;;21.33;14.90;;;;;;;;;;5096166;28;20521;-67
2023/08/20 05:17:08;;;;;;;21.10;15.20;;;;;;;;;;5096189;28;20534;-66
2023/08/20 05:19:35;;;;;;;18.00;14.80;;;;;;;;;;5096231;28;21046;-67
2023/08/20 05:22:03;;;;;;;17.40;14.63;;;;;;;;;;5096317;28;20542;-67
2023/08/20 05:24:30;;;;;;;20.50;13.37;;;;;;;;;;5096752;28;20533;-67
2023/08/20 05:27:07;;;;;;;16.53;14.53;;;;;;;;;;5096155;28;20527;-67
2023/08/20 05:29:36;;;;;;;17.10;15.30;;;;;;;;;;5095770;28;20489;-67
2023/08/20 05:32:03;;;;;;;16.60;14.80;;;;;;;;;;5096407;28;20439;-66
2023/08/20 05:34:30;;;;;;;22.13;15.10;;;;;;;;;;5095797;28;20547;-67
2023/08/20 05:36:57;;;;;;;18.97;16.07;;;;;;;;;;5095672;28;20936;-67
2023/08/20 05:39:25;;;;;;;21.43;14.13;;;;;;;;;;5096379;28;20526;-66
2023/08/20 05:41:52;;;;;;;19.13;13.80;;;;;;;;;;5096069;28;20439;-67
2023/08/20 05:44:20;;;;;;;21.07;14.13;;;;;;;;;;5096388;28;20447;-67
2023/08/20 05:46:48;;;;;;;20.70;13.60;;;;;;;;;;5096059;28;20443;-67
2023/08/20 05:49:16;;;;;;;18.40;14.50;;;;;;;;;;5094990;28;20448;-67
2023/08/20 05:51:43;;;;;;;16.67;13.87;;;;;;;;;;5094910;28;20439;-67
2023/08/20 05:54:11;;;;;;;19.23;14.03;;;;;;;;;;5094674;28;20467;-65
2023/08/20 05:56:38;;;;;;;19.37;14.87;;;;;;;;;;5095262;28;20435;-65
2023/08/20 05:59:05;;;;;;;16.87;14.53;;;;;;;;;;5095209;28;20845;-65
2023/08/20 06:01:32;;;;;;;17.50;13.63;;;;;;;;;;5095767;28;20514;-64
2023/08/20 06:04:01;;;;;;;22.80;14.97;;;;;;;;;;5095780;28;20715;-63
2023/08/20 06:06:28;;;;;;;17.13;14.47;;;;;;;;;;5095715;28;20845;-63
2023/08/20 06:08:56;;;;;;;18.67;13.37;;;;;;;;;;5095268;28;20442;-63
2023/08/20 06:11:23;;;;;;;20.83;14.60;;;;;;;;;;5094511;28;20475;-63
2023/08/20 06:13:50;;;;;;;19.90;15.70;;;;;;;;;;5094612;28;20439;-63
2023/08/20 06:16:17;;;;;;;18.07;13.93;;;;;;;;;;5095387;28;20794;-62
2023/08/20 06:18:44;;;;;;;23.90;16.17;;;;;;;;;;5095199;28;20454;-64
2023/08/20 06:21:14;;;;;;;20.60;14.97;;;;;;;;;;5095505;28;20447;-63
2023/08/20 06:23:41;;;;;;;21.67;16.40;;;;;;;;;;5095500;28;20450;-63
2023/08/20 06:26:08;;;;;;;20.90;15.50;;;;;;;;;;5095345;28;20472;-72
2023/08/20 06:28:35;;;;;;;17.90;15.93;;;;;;;;;;5095260;28;20439;-65
2023/08/20 06:31:02;;;;;;;19.83;15.37;;;;;;;;;;5094807;28;20479;-64
2023/08/20 06:33:29;;;;;;;21.30;15.60;;;;;;;;;;5094914;28;20947;-63
2023/08/20 06:35:57;;;;;;;23.57;16.00;;;;;;;;;;5095983;28;20433;-63
2023/08/20 06:38:25;;;;;;;20.53;15.50;;;;;;;;;;5095421;28;20444;-63
2023/08/20 06:40:53;;;;;;;19.97;16.17;;;;;;;;;;5095397;28;20443;-63
2023/08/20 06:43:20;;;;;;;16.93;14.43;;;;;;;;;;5094803;28;21020;-63
2023/08/20 06:45:47;;;;;;;22.63;15.37;;;;;;;;;;5093806;28;20803;-64
2023/08/20 06:48:14;;;;;;;18.70;16.53;;;;;;;;;;5094944;28;20438;-64
2023/08/20 06:50:43;;;;;;;22.20;15.20;;;;;;;;;;5094539;28;20478;-64
2023/08/20 06:53:10;;;;;;;22.67;16.57;;;;;;;;;;5094416;28;20475;-64
2023/08/20 06:55:38;;;;;;;18.63;16.00;;;;;;;;;;5095202;28;20777;-64
2023/08/20 06:58:06;;;;;;;21.70;17.30;;;;;;;;;;5094774;28;20436;-64
2023/08/20 07:00:33;;;;;;;24.53;19.10;;;;;;;;;;5094793;28;20516;-64
2023/08/20 07:03:00;;;;;;;22.77;17.33;;;;;;;;;;5094651;28;20781;-64
2023/08/20 07:05:27;;;;;;;25.00;19.60;;;;;;;;;;5094363;28;20451;-64
2023/08/20 07:07:54;;;;;;;26.77;20.70;;;;;;;;;;5093492;28;20438;-64
2023/08/20 07:10:22;;;;;;;24.00;19.10;;;;;;;;;;5094082;28;20500;-64
2023/08/20 07:12:50;;;;;;;23.40;19.53;;;;;;;;;;5094166;28;20517;-63
2023/08/20 07:15:17;;;;;;;27.00;21.17;;;;;;;;;;5094343;28;20782;-64
2023/08/20 07:17:44;;;;;;;28.40;22.57;;;;;;;;;;5094461;28;20472;-64
2023/08/20 07:20:12;;;;;;;26.57;22.40;;;;;;;;;;5093967;28;20976;-64
2023/08/20 07:22:39;;;;;;;38.73;27.73;;;;;;;;;;5094344;28;20452;-64
2023/08/20 07:25:06;;;;;;;26.70;22.30;;;;;;;;;;5093692;28;20468;-65
2023/08/20 07:27:34;;;;;;;36.90;24.70;;;;;;;;;;5093800;28;20452;-65
2023/08/20 07:30:02;;;;;;;27.17;23.53;;;;;;;;;;5093901;28;20480;-64
2023/08/20 07:32:29;;;;;;;28.37;23.60;;;;;;;;;;5093464;28;20444;-62
2023/08/20 07:34:56;;;;;;;35.80;26.67;;;;;;;;;;5093896;28;20444;-64
2023/08/20 07:37:24;;;;;;;26.63;23.40;;;;;;;;;;5094035;28;21004;-64
2023/08/20 07:39:51;;;;;;;35.43;26.23;;;;;;;;;;5094017;28;20480;-63
2023/08/20 07:42:19;;;;;;;29.30;25.73;;;;;;;;;;5093940;28;20443;-63
2023/08/20 07:44:46;;;;;;;31.33;26.07;;;;;;;;;;5093268;28;20436;-63
2023/08/20 07:47:14;;;;;;;32.73;26.57;;;;;;;;;;5093534;28;20875;-64
2023/08/20 07:49:41;;;;;;;32.90;27.87;;;;;;;;;;5093822;28;20446;-64
2023/08/20 07:52:09;;;;;;;32.67;27.50;;;;;;;;;;5093869;28;20429;-64
2023/08/20 07:54:36;;;;;;;34.80;27.63;;;;;;;;;;5086581;28;20499;-64
2023/08/20 07:57:03;;;;;;;33.80;28.50;;;;;;;;;;5073228;28;20488;-64
2023/08/20 07:59:31;;;;;;;34.53;28.37;;;;;;;;;;5072945;28;20933;-64
2023/08/20 08:01:58;;;;;;;35.50;29.37;;;;;;;;;;5073526;28;20441;-64
2023/08/20 08:04:26;;;;;;;33.80;29.47;;;;;;;;;;5073226;28;20447;-64
2023/08/20 08:06:53;;;;;;;37.87;30.97;;;;;;;;;;5073411;28;20529;-63
2023/08/20 08:09:21;;;;;;;36.27;29.53;;;;;;;;;;5073360;28;20430;-63
2023/08/20 08:11:49;;;;;;;38.27;29.80;;;;;;;;;;5073272;28;20487;-63
2023/08/20 08:14:16;;;;;;;38.67;31.27;;;;;;;;;;5072319;28;20442;-64
2023/08/20 08:16:43;;;;;;;35.57;31.27;;;;;;;;;;5072716;28;20937;-64
2023/08/20 08:19:10;;;;;;;36.37;31.87;;;;;;;;;;5072287;28;20811;-63
2023/08/20 08:21:39;;;;;;;39.70;31.73;;;;;;;;;;5073115;28;20445;-63
2023/08/20 08:24:06;;;;;;;35.60;30.83;;;;;;;;;;5072477;28;20539;-64
2023/08/20 08:26:35;;;;;;;41.00;31.07;;;;;;;;;;5073065;28;20529;-64
2023/08/20 08:29:02;;;;;;;38.67;32.30;;;;;;;;;;5073314;28;20438;-64
2023/08/20 08:31:29;;;;;;;38.10;33.20;;;;;;;;;;5072781;28;20572;-63
2023/08/20 08:33:56;;;;;;;39.13;31.60;;;;;;;;;;5072836;28;20809;-65
2023/08/20 08:36:24;;;;;;;40.07;32.00;;;;;;;;;;5072881;28;20439;-64
2023/08/20 08:38:53;;;;;;;36.27;30.30;;;;;;;;;;5073063;28;20441;-64
2023/08/20 08:41:22;;;;;;;39.50;31.27;;;;;;;;;;5072699;28;20447;-64
2023/08/20 08:43:50;;;;;;;38.60;32.73;;;;;;;;;;5073336;28;20443;-64
2023/08/20 08:46:17;;;;;;;38.47;32.60;;;;;;;;;;5092833;28;20957;-64
2023/08/20 08:48:45;;;;;;;43.57;32.87;;;;;;;;;;5093561;28;20441;-64
2023/08/20 08:51:13;;;;;;;39.00;31.67;;;;;;;;;;5093118;28;20473;-64
2023/08/20 08:53:40;;;;;;;35.37;30.90;;;;;;;;;;5092365;28;20479;-64
2023/08/20 08:56:09;;;;;;;40.17;34.17;;;;;;;;;;5093114;28;20439;-65
2023/08/20 08:58:36;;;;;;;37.40;31.77;;;;;;;;;;5092477;28;20538;-64
2023/08/20 09:01:03;;;;;;;36.20;32.10;;;;;;;;;;5092845;28;20916;-64
2023/08/20 09:03:30;;;;;;;38.00;32.30;;;;;;;;;;5093009;28;20507;-64
2023/08/20 09:06:00;;;;;;;36.67;31.40;;;;;;;;;;5092784;28;20434;-63
2023/08/20 09:08:28;;;;;;;34.10;27.70;;;;;;;;;;5093065;28;20943;-64
2023/08/20 09:10:56;;;;;;;33.83;29.77;;;;;;;;;;5093123;28;20852;-64
2023/08/20 09:13:34;;;;;;;33.50;29.13;;;;;;;;;;5092627;28;20441;-64
2023/08/20 09:16:01;;;;;;;41.63;33.47;;;;;;;;;;5092968;28;20440;-63
2023/08/20 09:18:28;;;;;;;36.10;30.90;;;;;;;;;;5092518;28;20797;-63
2023/08/20 09:20:55;;;;;;;45.40;32.50;;;;;;;;;;5093094;28;20537;-63
2023/08/20 09:23:22;;;;;;;37.43;31.67;;;;;;;;;;5093057;28;20535;-63
2023/08/20 09:25:49;;;;;;;34.20;30.60;;;;;;;;;;5092666;28;20864;-63
2023/08/20 09:28:17;;;;;;;41.23;32.83;;;;;;;;;;5093100;28;20438;-62
2023/08/20 09:30:57;;;;;;;35.27;31.13;;;;;;;;;;5095360;28;20486;-64
2023/08/20 09:33:24;;;;;;;37.93;29.07;;;;;;;;;;5096597;28;20514;-64
2023/08/20 09:35:53;;;;;;;32.67;27.30;;;;;;;;;;5096968;28;20523;-63
2023/08/20 09:38:21;;;;;;;31.43;25.57;;;;;;;;;;5096987;28;20801;-64
2023/08/20 09:40:50;;;;;;;32.97;27.83;;;;;;;;;;5096602;28;20438;-63
2023/08/20 09:43:18;;;;;;;34.90;28.90;;;;;;;;;;5096618;28;20466;-63
2023/08/20 09:45:46;;;;;;;31.40;27.57;;;;;;;;;;5096667;28;20843;-63
2023/08/20 09:48:15;;;;;;;28.03;24.70;;;;;;;;;;5096296;28;20441;-63
2023/08/20 09:50:42;;;;;;;34.97;31.23;;;;;;;;;;5096317;28;20564;-64
2023/08/20 09:53:13;;;;;;;35.10;26.00;;;;;;;;;;5096732;28;20488;-64
2023/08/20 09:55:43;;;;;;;28.67;25.57;;;;;;;;;;5096932;28;20785;-64
2023/08/20 09:58:10;;;;;;;25.83;23.20;;;;;;;;;;5096298;28;20466;-63
2023/08/20 10:00:38;;;;;;;29.60;25.67;;;;;;;;;;5095812;28;20534;-64
2023/08/20 10:03:05;;;;;;;24.90;21.63;;;;;;;;;;5094879;28;21007;-64
2023/08/20 10:05:34;;;;;;;27.03;22.10;;;;;;;;;;5095468;28;20443;-64
2023/08/20 10:08:02;;;;;;;21.40;19.20;;;;;;;;;;5095471;28;20448;-64
2023/08/20 10:10:29;;;;;;;28.70;20.37;;;;;;;;;;5095832;28;20438;-64
2023/08/20 10:12:58;;;;;;;22.33;19.80;;;;;;;;;;5095595;28;20434;-63
2023/08/20 10:15:26;;;;;;;21.00;16.73;;;;;;;;;;5095596;28;20442;-64
2023/08/20 10:17:53;;;;;;;12.97;11.67;;;;;;;;;;5095540;28;20541;-64
2023/08/20 10:20:21;;;;;;;15.00;13.50;;;;;;;;;;5095498;28;20442;-64
2023/08/20 10:22:51;;;;;;;15.60;13.90;;;;;;;;;;5095304;28;20811;-64
2023/08/20 10:25:24;;;;;;;17.60;13.53;;;;;;;;;;5095381;28;20633;-64
2023/08/20 10:27:51;;;;;;;15.50;13.90;;;;;;;;;;5095202;28;20440;-64
2023/08/20 10:30:21;;;;;;;16.97;12.47;;;;;;;;;;5095065;28;20438;-64
2023/08/20 10:32:49;;;;;;;13.43;12.13;;;;;;;;;;5095211;28;20475;-64
2023/08/20 10:35:17;;;;;;;16.63;12.60;;;;;;;;;;5095486;28;20447;-64
2023/08/20 10:38:05;;;;;;;11.80;10.60;;;;;;;;;;5095345;28;20423;-64
2023/08/20 10:40:55;;;;;;;11.50;9.80;;;;;;;;;;5095388;28;20450;-64
2023/08/20 10:43:28;;;;;;;13.67;9.97;;;;;;;;;;5095299;28;20510;-64
2023/08/20 10:46:08;;;;;;;8.90;8.00;;;;;;;;;;5095255;28;20437;-64
2023/08/20 10:48:36;;;;;;;9.43;8.53;;;;;;;;;;5094972;28;20508;-64
2023/08/20 10:51:11;;;;;;;9.60;8.67;;;;;;;;;;5094935;28;20485;-64
2023/08/20 10:53:40;;;;;;;8.23;6.13;;;;;;;;;;5095100;28;20997;-64
2023/08/20 10:56:10;;;;;;;10.50;8.17;;;;;;;;;;5095572;28;20462;-64
2023/08/20 10:58:40;;;;;;;9.00;8.10;;;;;;;;;;5095089;28;20524;-64
2023/08/20 11:01:20;;;;;;;10.63;8.37;;;;;;;;;;5094677;28;20953;-64
2023/08/20 11:03:48;;;;;;;8.77;7.83;;;;;;;;;;5095677;28;20426;-64
2023/08/20 11:06:16;;;;;;;10.17;9.27;;;;;;;;;;5094877;28;20913;-64
2023/08/20 11:08:46;;;;;;;11.23;10.23;;;;;;;;;;5094928;28;20516;-64
2023/08/20 11:11:13;;;;;;;10.90;9.80;;;;;;;;;;5094699;28;20835;-63
2023/08/20 11:13:42;;;;;;;10.00;9.10;;;;;;;;;;5094466;28;20434;-63
2023/08/20 11:16:10;;;;;;;9.40;8.50;;;;;;;;;;5093527;28;20452;-64
2023/08/20 11:18:37;;;;;;;10.10;9.10;;;;;;;;;;5093855;28;20886;-64
2023/08/20 11:21:05;;;;;;;8.63;6.27;;;;;;;;;;5093861;28;20526;-64
2023/08/20 11:23:32;;;;;;;7.90;7.20;;;;;;;;;;5093964;28;20446;-63
2023/08/20 11:26:01;;;;;;;8.60;7.23;;;;;;;;;;5094441;28;20442;-64
2023/08/20 11:28:29;;;;;;;8.47;7.67;;;;;;;;;;5094315;28;20828;-64
2023/08/20 11:30:57;;;;;;;9.07;8.17;;;;;;;;;;5094192;28;20446;-64
2023/08/20 11:33:26;;;;;;;8.87;7.47;;;;;;;;;;5093941;28;20442;-64
2023/08/20 11:35:54;;;;;;;7.20;6.50;;;;;;;;;;5094245;28;20462;-64
2023/08/20 11:38:22;;;;;;;7.90;7.10;;;;;;;;;;5094396;28;20519;-64
2023/08/20 11:40:49;;;;;;;7.97;7.17;;;;;;;;;;5093801;28;20450;-64
2023/08/20 11:43:17;;;;;;;7.43;6.73;;;;;;;;;;5093459;28;20449;-64
2023/08/20 11:45:48;;;;;;;8.03;6.70;;;;;;;;;;5093979;28;20466;-64
2023/08/20 11:48:15;;;;;;;7.60;6.90;;;;;;;;;;5093900;28;20436;-64
2023/08/20 11:50:43;;;;;;;8.33;7.43;;;;;;;;;;5093684;28;20435;-64
2023/08/20 11:53:10;;;;;;;8.07;7.33;;;;;;;;;;5093420;28;20494;-64
2023/08/20 11:55:39;;;;;;;9.17;7.53;;;;;;;;;;5094351;28;20423;-64
2023/08/20 11:58:06;;;;;;;12.37;9.63;;;;;;;;;;5093906;28;20518;-64
2023/08/20 12:00:34;;;;;;;9.63;8.70;;;;;;;;;;5093531;28;20438;-64
2023/08/20 12:03:03;;;;;;;9.87;8.97;;;;;;;;;;5093343;28;20816;-64
2023/08/20 12:05:31;;;;;;;9.80;8.87;;;;;;;;;;5093319;28;20484;-64
2023/08/20 12:07:58;;;;;;;10.27;8.60;;;;;;;;;;5093748;28;20453;-64
2023/08/20 12:10:26;;;;;;;9.33;8.43;;;;;;;;;;5093282;28;20929;-63
2023/08/20 12:12:54;;;;;;;9.43;8.50;;;;;;;;;;5093013;28;20489;-64
2023/08/20 12:15:21;;;;;;;9.50;8.43;;;;;;;;;;5093433;28;20518;-64
2023/08/20 12:17:59;;;;;;;8.90;8.10;;;;;;;;;;5093602;28;20435;-64
2023/08/20 12:20:28;;;;;;;10.30;8.37;;;;;;;;;;5093086;28;20814;-64
2023/08/20 12:22:55;;;;;;;10.20;8.97;;;;;;;;;;5092612;28;20443;-64
2023/08/20 12:25:22;;;;;;;9.00;8.10;;;;;;;;;;5092995;28;20434;-64
2023/08/20 12:27:50;;;;;;;11.70;8.70;;;;;;;;;;5092855;28;20440;-64
2023/08/20 12:30:17;;;;;;;13.60;8.60;;;;;;;;;;5093452;28;20524;-63
2023/08/20 12:32:44;;;;;;;11.60;8.77;;;;;;;;;;5093016;28;20901;-64
2023/08/20 12:35:13;;;;;;;9.80;8.90;;;;;;;;;;5093301;28;20478;-64
2023/08/20 12:37:40;;;;;;;9.30;8.30;;;;;;;;;;5092922;28;20912;-64
2023/08/20 12:40:10;;;;;;;11.07;9.57;;;;;;;;;;5093299;28;20524;-64
2023/08/20 12:42:37;;;;;;;11.23;8.90;;;;;;;;;;5092871;28;20435;-64
2023/08/20 12:45:05;;;;;;;8.70;7.90;;;;;;;;;;5092652;28;20532;-63
2023/08/20 12:47:32;;;;;;;7.60;6.90;;;;;;;;;;5092828;28;20524;-63
2023/08/20 12:49:59;;;;;;;8.07;7.27;;;;;;;;;;5093205;28;20798;-64
2023/08/20 12:52:28;;;;;;;9.50;8.50;;;;;;;;;;5093055;28;20565;-64
2023/08/20 12:54:55;;;;;;;9.77;7.60;;;;;;;;;;5093222;28;20549;-64
2023/08/20 12:57:22;;;;;;;9.47;8.50;;;;;;;;;;5093025;28;20522;-64
2023/08/20 12:59:49;;;;;;;9.13;8.43;;;;;;;;;;5093001;28;20445;-63
2023/08/20 13:02:17;;;;;;;9.53;8.73;;;;;;;;;;5092667;28;20450;-64
2023/08/20 13:04:44;;;;;;;8.90;8.00;;;;;;;;;;5093853;28;20444;-64
2023/08/20 13:07:12;;;;;;;9.23;8.27;;;;;;;;;;5097469;28;20853;-64
2023/08/20 13:09:41;;;;;;;9.97;8.67;;;;;;;;;;5097134;28;20433;-64
2023/08/20 13:12:12;;;;;;;10.00;9.13;;;;;;;;;;5096785;28;20480;-64
2023/08/20 13:14:39;;;;;;;9.83;8.93;;;;;;;;;;5096706;28;20421;-64
2023/08/20 13:17:07;;;;;;;10.73;9.47;;;;;;;;;;5096696;28;20443;-64
2023/08/20 13:19:34;;;;;;;12.00;9.70;;;;;;;;;;5096779;28;20447;-64
2023/08/20 13:22:01;;;;;;;12.60;11.37;;;;;;;;;;5097152;28;20439;-64
2023/08/20 13:24:29;;;;;;;9.50;8.53;;;;;;;;;;5097032;28;20502;-64
2023/08/20 13:26:57;;;;;;;9.70;8.73;;;;;;;;;;5096537;28;20598;-64
2023/08/20 13:29:24;;;;;;;10.03;9.10;;;;;;;;;;5096824;28;20428;-64
2023/08/20 13:31:52;;;;;;;16.33;13.67;;;;;;;;;;5096712;28;20830;-64
2023/08/20 13:34:19;;;;;;;10.60;9.50;;;;;;;;;;5096313;28;20427;-64
2023/08/20 13:36:47;;;;;;;8.60;7.90;;;;;;;;;;5096364;28;20840;-64
2023/08/20 13:39:14;;;;;;;8.33;6.83;;;;;;;;;;5096611;28;20451;-64
2023/08/20 13:41:42;;;;;;;7.80;7.03;;;;;;;;;;5096209;28;20463;-64
2023/08/20 13:44:10;;;;;;;26.33;21.40;;;;;;;;;;5096447;28;20443;-64
2023/08/20 13:46:37;;;;;;;15.33;13.77;;;;;;;;;;5096365;28;20448;-64
2023/08/20 13:49:05;;;;;;;8.93;7.70;;;;;;;;;;5096238;28;20487;-64
2023/08/20 13:51:32;;;;;;;6.87;5.80;;;;;;;;;;5096313;28;20442;-64
2023/08/20 13:54:00;;;;;;;9.23;5.90;;;;;;;;;;5095530;28;20502;-64
2023/08/20 13:56:27;;;;;;;8.00;6.37;;;;;;;;;;5096618;28;20846;-64
2023/08/20 13:58:54;;;;;;;7.40;5.83;;;;;;;;;;5096164;28;20444;-64
2023/08/20 14:01:23;;;;;;;7.00;6.20;;;;;;;;;;5096228;28;20435;-64
2023/08/20 14:03:50;;;;;;;17.20;14.40;;;;;;;;;;5095943;28;20421;-64
2023/08/20 14:06:17;;;;;;;8.30;7.30;;;;;;;;;;5096493;28;20447;-64
2023/08/20 14:08:45;;;;;;;17.87;15.97;;;;;;;;;;5095891;28;20778;-64
2023/08/20 14:11:12;;;;;;;13.90;10.40;;;;;;;;;;5095890;28;20439;-64
2023/08/20 14:13:39;;;;;;;7.00;6.40;;;;;;;;;;5095818;28;20453;-64
2023/08/20 14:16:07;;;;;;;6.73;5.37;;;;;;;;;;5095188;28;20442;-64
2023/08/20 14:18:35;;;;;;;10.70;9.70;;;;;;;;;;5095758;28;20428;-64
2023/08/20 14:21:03;;;;;;;6.47;5.87;;;;;;;;;;5095712;28;20458;-64
2023/08/20 14:23:30;;;;;;;11.30;5.63;;;;;;;;;;5095176;28;20447;-64
2023/08/20 14:25:57;;;;;;;5.20;4.13;;;;;;;;;;5095108;28;20965;-64
2023/08/20 14:28:25;;;;;;;4.70;4.20;;;;;;;;;;5095492;28;20490;-64